Time;durP1;ratioP1;P1;durP2;ratioP2;P2;SDS_P1;SDS_P2;PMS_P1;PMS_P2;Temp;Humidity;BMP_temperature;BMP_pressure;BME280_temperature;BME280_humidity;BME280_pressure;Samples;Min_cycle;Max_cycle;Signal;HPM_P1;HPM_P2
2023/11/26 00:00:17;;;;;;;10.40;3.17;;;6.00;99.90;;;;;;5055885;28;20182;-70
2023/11/26 00:02:42;;;;;;;14.43;3.40;;;6.00;99.90;;;;;;5073830;28;20169;-70
2023/11/26 00:05:08;;;;;;;6.13;2.80;;;6.00;99.90;;;;;;5073079;28;20174;-70
2023/11/26 00:07:33;;;;;;;7.73;3.67;;;6.00;99.90;;;;;;5074006;28;20173;-70
2023/11/26 00:09:59;;;;;;;6.83;3.80;;;6.00;99.90;;;;;;5055895;28;20191;-70
2023/11/26 00:12:24;;;;;;;3.70;2.70;;;6.10;99.90;;;;;;5055586;28;20170;-70
2023/11/26 00:14:50;;;;;;;10.97;3.53;;;6.10;99.90;;;;;;5073650;28;20590;-70
2023/11/26 00:17:16;;;;;;;5.73;2.70;;;6.10;99.90;;;;;;5073432;28;20159;-70
2023/11/26 00:19:41;;;;;;;9.23;3.30;;;6.10;99.90;;;;;;5073488;28;20190;-70
2023/11/26 00:22:07;;;;;;;3.23;1.93;;;6.00;99.90;;;;;;5073829;28;20642;-70
2023/11/26 00:24:33;;;;;;;10.93;3.13;;;6.00;99.90;;;;;;5073449;28;20182;-70
2023/11/26 00:26:58;;;;;;;10.73;3.60;;;6.00;99.90;;;;;;5073106;28;20170;-70
2023/11/26 00:29:24;;;;;;;5.77;3.13;;;6.00;99.90;;;;;;5073319;28;20197;-70
2023/11/26 00:31:49;;;;;;;5.20;2.80;;;6.10;99.90;;;;;;5073363;28;20170;-70
2023/11/26 00:34:15;;;;;;;6.07;2.67;;;6.10;99.90;;;;;;5073353;28;20158;-70
2023/11/26 00:36:43;;;;;;;5.20;3.23;;;6.10;99.90;;;;;;5073196;28;20209;-70
2023/11/26 00:39:09;;;;;;;6.13;3.30;;;6.00;99.90;;;;;;5055214;28;20186;-70
2023/11/26 00:41:34;;;;;;;12.87;3.50;;;6.00;99.90;;;;;;5073170;28;20455;-70
2023/11/26 00:44:00;;;;;;;9.50;3.93;;;6.00;99.90;;;;;;5073325;28;20176;-70
2023/11/26 00:46:25;;;;;;;7.10;4.50;;;6.00;99.90;;;;;;5072923;28;20171;-70
2023/11/26 00:48:51;;;;;;;7.20;3.77;;;6.00;99.90;;;;;;5072859;28;20163;-70
2023/11/26 00:51:21;;;;;;;7.83;3.83;;;6.00;99.90;;;;;;5072990;28;20158;-70
2023/11/26 00:53:49;;;;;;;6.03;3.50;;;5.90;99.90;;;;;;5072709;28;20966;-70
2023/11/26 00:56:14;;;;;;;4.77;3.67;;;6.00;99.90;;;;;;5072647;28;20452;-70
2023/11/26 00:58:40;;;;;;;6.53;3.83;;;6.00;99.90;;;;;;5072929;28;20538;-70
2023/11/26 01:01:06;;;;;;;10.37;3.70;;;6.00;99.90;;;;;;5072782;28;20452;-70
2023/11/26 01:03:31;;;;;;;5.83;3.47;;;6.00;99.90;;;;;;5072693;28;20166;-70
2023/11/26 01:05:57;;;;;;;7.37;3.40;;;6.00;99.90;;;;;;5054527;28;20177;-70
2023/11/26 01:08:24;;;;;;;10.70;2.90;;;6.00;99.90;;;;;;5072799;28;20633;-70
2023/11/26 01:10:50;;;;;;;5.93;3.00;;;6.00;99.90;;;;;;5072308;28;20186;-70
2023/11/26 01:13:16;;;;;;;5.47;3.07;;;6.00;99.90;;;;;;5072704;28;20405;-70
2023/11/26 01:15:42;;;;;;;8.67;3.10;;;6.00;99.90;;;;;;5072521;28;20593;-70
2023/11/26 01:18:07;;;;;;;9.40;4.10;;;6.00;99.90;;;;;;5072602;28;20162;-70
2023/11/26 01:20:33;;;;;;;3.23;2.33;;;6.00;99.90;;;;;;5054488;28;20186;-70
2023/11/26 01:22:58;;;;;;;6.67;3.37;;;6.00;99.90;;;;;;5072406;28;20633;-70
2023/11/26 01:25:24;;;;;;;6.73;2.77;;;6.00;99.90;;;;;;5071978;28;20171;-70
2023/11/26 01:27:49;;;;;;;3.47;2.90;;;6.00;99.90;;;;;;5072240;28;20641;-70
2023/11/26 01:30:15;;;;;;;10.37;3.23;;;6.00;99.90;;;;;;5072241;28;20192;-70
2023/11/26 01:32:42;;;;;;;3.43;2.83;;;6.00;99.90;;;;;;5072314;28;20169;-70
2023/11/26 01:35:08;;;;;;;4.40;2.00;;;6.00;99.90;;;;;;5072094;28;20217;-70
2023/11/26 01:37:34;;;;;;;8.33;2.20;;;6.00;99.90;;;;;;5072033;28;20480;-70
2023/11/26 01:40:00;;;;;;;5.00;2.30;;;6.00;99.90;;;;;;5071994;28;20511;-70
2023/11/26 01:42:25;;;;;;;3.87;2.60;;;5.90;99.90;;;;;;5072127;28;20432;-70
2023/11/26 01:44:51;;;;;;;7.40;3.00;;;5.90;99.90;;;;;;5072278;28;20170;-70
2023/11/26 01:47:17;;;;;;;3.50;2.53;;;5.90;99.90;;;;;;5072105;28;20170;-70
2023/11/26 01:49:43;;;;;;;7.23;2.70;;;5.80;99.90;;;;;;5072107;28;20635;-70
2023/11/26 01:52:12;;;;;;;7.93;2.20;;;5.90;99.90;;;;;;5071850;28;20818;-70
2023/11/26 01:54:42;;;;;;;6.67;3.10;;;5.80;99.90;;;;;;5072223;28;20838;-70
2023/11/26 01:57:09;;;;;;;4.23;2.53;;;5.80;99.90;;;;;;5071958;28;20396;-70
2023/11/26 01:59:35;;;;;;;4.40;2.80;;;5.90;99.90;;;;;;5072106;28;20470;-70
2023/11/26 02:02:01;;;;;;;7.93;2.70;;;5.90;99.90;;;;;;5071978;28;20435;-70
2023/11/26 02:04:26;;;;;;;4.13;2.93;;;5.80;99.90;;;;;;5071996;28;20174;-70
2023/11/26 02:06:53;;;;;;;5.00;2.50;;;5.80;99.90;;;;;;5071832;28;20174;-70
2023/11/26 02:09:19;;;;;;;4.53;2.90;;;5.80;99.90;;;;;;5071678;28;20178;-70
2023/11/26 02:11:46;;;;;;;6.63;3.73;;;5.80;99.90;;;;;;5071820;28;20902;-70
2023/11/26 02:14:12;;;;;;;8.87;3.60;;;5.80;99.90;;;;;;5071638;28;20912;-70
2023/11/26 02:16:38;;;;;;;5.80;3.70;;;5.80;99.90;;;;;;5071926;28;20466;-70
2023/11/26 02:19:22;;;;;;;4.20;3.10;;;5.80;99.90;;;;;;5071099;28;20249;-70
2023/11/26 02:21:47;;;;;;;13.83;3.63;;;5.80;99.90;;;;;;5071772;28;20397;-70
2023/11/26 02:24:16;;;;;;;5.80;3.20;;;5.80;99.90;;;;;;5071156;28;20399;-70
2023/11/26 02:26:41;;;;;;;5.53;2.90;;;5.80;99.90;;;;;;5071053;28;20162;-70
2023/11/26 02:29:08;;;;;;;8.23;3.30;;;5.80;99.90;;;;;;5074846;28;20434;-70
2023/11/26 02:31:33;;;;;;;4.90;3.13;;;5.70;99.90;;;;;;5075856;28;20154;-70
2023/11/26 02:33:59;;;;;;;6.80;3.37;;;5.80;99.90;;;;;;5075818;28;20759;-70
2023/11/26 02:36:25;;;;;;;5.93;3.20;;;5.70;99.90;;;;;;5075412;28;20217;-70
2023/11/26 02:38:52;;;;;;;13.33;4.60;;;5.80;99.90;;;;;;5075467;28;20165;-70
2023/11/26 02:41:18;;;;;;;7.60;3.97;;;5.70;99.90;;;;;;5075605;28;20396;-70
2023/11/26 02:43:44;;;;;;;8.23;4.53;;;5.70;99.90;;;;;;5075649;28;20449;-70
2023/11/26 02:46:09;;;;;;;10.47;3.93;;;5.70;99.90;;;;;;5075376;28;20432;-70
2023/11/26 02:48:35;;;;;;;7.20;4.50;;;5.60;99.90;;;;;;5075555;28;20171;-70
2023/11/26 02:51:00;;;;;;;9.93;4.13;;;5.50;99.90;;;;;;5075430;28;20197;-70
2023/11/26 02:53:26;;;;;;;7.60;3.80;;;5.40;99.90;;;;;;5075252;28;20553;-70
2023/11/26 02:55:51;;;;;;;7.97;4.80;;;5.30;99.90;;;;;;5075144;28;20740;-70
2023/11/26 02:58:17;;;;;;;4.00;3.60;;;5.20;99.90;;;;;;5075131;28;20250;-70
2023/11/26 03:00:43;;;;;;;8.50;4.63;;;5.10;99.90;;;;;;5057171;28;20190;-70
2023/11/26 03:03:11;;;;;;;13.40;5.90;;;5.10;99.90;;;;;;5075102;28;20173;-70
2023/11/26 03:05:37;;;;;;;10.53;4.63;;;5.00;99.90;;;;;;5074910;28;20413;-70
2023/11/26 03:08:09;;;;;;;8.23;4.50;;;5.00;99.90;;;;;;5057003;28;20427;-70
2023/11/26 03:13:22;;;;;;;7.40;3.70;;;4.90;99.90;;;;;;5074954;28;20407;-70
2023/11/26 03:15:53;;;;;;;13.13;5.80;;;4.90;99.90;;;;;;5074676;28;21148;-70
2023/11/26 03:18:19;;;;;;;7.63;5.10;;;4.80;99.90;;;;;;5057043;28;20705;-70
2023/11/26 03:20:45;;;;;;;9.17;5.80;;;4.70;99.90;;;;;;5074870;28;20428;-70
2023/11/26 03:23:13;;;;;;;10.90;6.03;;;4.70;99.90;;;;;;5074802;28;20182;-70
2023/11/26 03:25:38;;;;;;;15.20;5.23;;;4.70;99.90;;;;;;5074616;28;21016;-70
2023/11/26 03:28:04;;;;;;;14.50;6.40;;;4.70;99.90;;;;;;5074696;28;20444;-70
2023/11/26 03:30:30;;;;;;;8.43;5.03;;;4.70;99.90;;;;;;5056607;28;20197;-70
2023/11/26 03:32:57;;;;;;;11.50;5.77;;;4.70;99.90;;;;;;5074702;28;20640;-70
2023/11/26 03:35:23;;;;;;;8.97;5.90;;;4.70;99.90;;;;;;5074475;28;20451;-70
2023/11/26 03:37:49;;;;;;;15.53;6.80;;;4.70;99.90;;;;;;5074284;28;20407;-70
2023/11/26 03:40:15;;;;;;;15.10;6.33;;;4.70;99.90;;;;;;5073110;28;20416;-70
2023/11/26 03:42:40;;;;;;;14.90;6.80;;;4.70;99.90;;;;;;5074486;28;20257;-70
2023/11/26 03:45:06;;;;;;;14.10;6.23;;;4.60;99.90;;;;;;5074439;28;20174;-70
2023/11/26 03:47:32;;;;;;;7.93;5.80;;;4.60;99.90;;;;;;5074129;28;20175;-70
2023/11/26 03:49:58;;;;;;;18.30;8.00;;;4.50;99.90;;;;;;5074283;28;20423;-70
2023/11/26 03:52:23;;;;;;;15.10;6.60;;;4.50;99.90;;;;;;5073979;28;20281;-70
2023/11/26 03:54:49;;;;;;;35.63;7.90;;;4.40;99.90;;;;;;5074083;28;20198;-70
2023/11/26 03:57:15;;;;;;;9.87;6.83;;;4.40;99.90;;;;;;5073900;28;20614;-70
2023/11/26 03:59:44;;;;;;;11.60;8.13;;;4.40;99.90;;;;;;5074116;28;20467;-70
2023/11/26 04:02:10;;;;;;;15.67;7.90;;;4.40;99.90;;;;;;5074037;28;20426;-70
2023/11/26 04:04:35;;;;;;;11.63;7.23;;;4.40;99.90;;;;;;5074042;28;20959;-70
2023/11/26 04:07:01;;;;;;;12.37;8.20;;;4.40;99.90;;;;;;5073326;28;20440;-70
2023/11/26 04:09:27;;;;;;;10.03;7.30;;;4.40;99.90;;;;;;5073567;28;20190;-70
2023/11/26 04:11:57;;;;;;;12.90;8.27;;;4.40;99.90;;;;;;5073828;28;20702;-70
2023/11/26 04:14:31;;;;;;;11.57;8.53;;;4.30;99.90;;;;;;5073878;28;20415;-70
2023/11/26 04:16:57;;;;;;;17.53;10.00;;;4.30;99.90;;;;;;5055766;28;20494;-70
2023/11/26 04:19:24;;;;;;;24.40;9.77;;;4.30;99.90;;;;;;5055555;28;20518;-70
2023/11/26 04:21:49;;;;;;;17.07;9.73;;;4.20;99.90;;;;;;5073306;28;20424;-70
2023/11/26 04:24:15;;;;;;;20.53;10.10;;;4.20;99.90;;;;;;5073702;28;20396;-70
2023/11/26 04:26:41;;;;;;;15.93;10.10;;;4.30;99.90;;;;;;5073593;28;20171;-70
2023/11/26 04:29:07;;;;;;;18.63;9.77;;;4.30;99.90;;;;;;5073608;28;20163;-69
2023/11/26 04:31:33;;;;;;;17.03;8.30;;;4.30;99.90;;;;;;5073595;28;20538;-70
2023/11/26 04:34:01;;;;;;;16.63;9.53;;;4.40;99.90;;;;;;5073635;28;20166;-70
2023/11/26 04:36:27;;;;;;;16.63;10.13;;;4.40;99.90;;;;;;5073214;28;20456;-70
2023/11/26 04:38:53;;;;;;;36.67;10.00;;;4.50;99.90;;;;;;5073366;28;20463;-70
2023/11/26 04:41:20;;;;;;;27.03;10.20;;;4.60;99.90;;;;;;5073424;28;20484;-70
2023/11/26 04:43:45;;;;;;;21.23;11.40;;;4.70;99.90;;;;;;5073276;28;20396;-69
2023/11/26 04:46:13;;;;;;;18.70;11.40;;;4.70;99.90;;;;;;5073033;28;20404;-70
2023/11/26 04:48:39;;;;;;;16.07;10.20;;;4.80;99.90;;;;;;5073331;28;20177;-70
2023/11/26 04:51:06;;;;;;;18.97;9.77;;;4.80;99.90;;;;;;5072645;28;20424;-70
2023/11/26 04:53:32;;;;;;;17.60;9.77;;;4.90;99.90;;;;;;5073083;28;20235;-70
2023/11/26 04:55:58;;;;;;;16.20;9.43;;;4.90;99.90;;;;;;5072495;28;20448;-70
2023/11/26 04:58:24;;;;;;;22.13;10.50;;;4.90;99.90;;;;;;5073036;28;20767;-70
2023/11/26 05:00:51;;;;;;;19.77;10.70;;;4.90;99.90;;;;;;5072791;28;20471;-70
2023/11/26 05:03:17;;;;;;;18.83;9.87;;;5.00;99.90;;;;;;5072941;28;20637;-70
2023/11/26 05:05:43;;;;;;;20.07;9.47;;;5.10;99.90;;;;;;5072496;28;20408;-70
2023/11/26 05:08:09;;;;;;;15.40;9.73;;;5.10;99.90;;;;;;5072625;28;20409;-70
2023/11/26 05:10:35;;;;;;;16.00;10.73;;;5.20;99.90;;;;;;5072465;28;20185;-70
2023/11/26 05:13:01;;;;;;;20.00;11.00;;;5.30;99.90;;;;;;5072733;28;20494;-70
2023/11/26 05:15:27;;;;;;;14.67;10.10;;;5.30;99.90;;;;;;5072613;28;20484;-70
2023/11/26 05:17:52;;;;;;;24.67;10.13;;;5.30;99.90;;;;;;5072152;28;20641;-70
2023/11/26 05:20:18;;;;;;;23.60;10.73;;;5.30;99.90;;;;;;5072232;28;20174;-70
2023/11/26 05:22:44;;;;;;;17.23;9.60;;;5.30;99.90;;;;;;5072336;28;20177;-70
2023/11/26 05:25:09;;;;;;;19.17;11.10;;;5.40;99.90;;;;;;5072332;28;20185;-70
2023/11/26 05:27:35;;;;;;;12.63;8.00;;;5.40;99.90;;;;;;5072128;28;20170;-70
2023/11/26 05:30:01;;;;;;;21.63;11.77;;;5.40;99.90;;;;;;5072344;28;20198;-70
2023/11/26 05:32:28;;;;;;;14.57;10.40;;;5.50;99.90;;;;;;5072257;28;20437;-70
2023/11/26 05:34:55;;;;;;;22.60;11.20;;;5.50;99.90;;;;;;5072114;28;20440;-70
2023/11/26 05:37:20;;;;;;;18.13;9.47;;;5.40;99.90;;;;;;5072209;28;20397;-70
2023/11/26 05:39:46;;;;;;;20.43;11.70;;;5.50;99.90;;;;;;5072154;28;20455;-70
2023/11/26 05:42:13;;;;;;;12.97;8.90;;;5.50;99.90;;;;;;5072183;28;20178;-70
2023/11/26 05:44:38;;;;;;;19.20;11.60;;;5.60;99.90;;;;;;5072201;28;20688;-70
2023/11/26 05:47:04;;;;;;;16.60;10.70;;;5.60;99.90;;;;;;5072052;28;20405;-70
2023/11/26 05:49:30;;;;;;;18.80;9.73;;;5.70;99.90;;;;;;5071897;28;20182;-70
2023/11/26 05:51:58;;;;;;;21.20;9.40;;;5.70;99.90;;;;;;5071861;28;20413;-70
2023/11/26 05:54:24;;;;;;;20.47;11.20;;;5.70;99.90;;;;;;5072010;28;20155;-70
2023/11/26 05:56:50;;;;;;;15.57;10.23;;;5.70;99.90;;;;;;5071817;28;20401;-70
2023/11/26 05:59:16;;;;;;;18.73;9.70;;;5.70;99.90;;;;;;5072042;28;20858;-70
2023/11/26 06:01:42;;;;;;;24.47;11.60;;;5.70;99.90;;;;;;5071725;28;20204;-70
2023/11/26 06:04:07;;;;;;;26.17;12.10;;;5.70;99.90;;;;;;5071496;28;20400;-70
2023/11/26 06:06:33;;;;;;;18.23;9.57;;;5.80;99.90;;;;;;5071801;28;20170;-70
2023/11/26 06:08:59;;;;;;;25.33;11.73;;;5.80;99.90;;;;;;5071843;28;20653;-70
2023/11/26 06:11:24;;;;;;;19.70;11.60;;;5.80;99.90;;;;;;5071812;28;20583;-70
2023/11/26 06:13:50;;;;;;;16.60;10.03;;;5.80;99.90;;;;;;5071813;28;20170;-70
2023/11/26 06:16:16;;;;;;;23.73;11.57;;;5.80;99.90;;;;;;5071485;28;20691;-70
2023/11/26 06:18:42;;;;;;;13.33;9.67;;;5.60;99.90;;;;;;5071731;28;20409;-70
2023/11/26 06:21:07;;;;;;;20.33;11.87;;;5.70;99.90;;;;;;5071756;28;20681;-70
2023/11/26 06:23:33;;;;;;;20.83;10.97;;;5.70;99.90;;;;;;5071780;28;20162;-70
2023/11/26 06:25:59;;;;;;;19.57;10.70;;;5.70;99.90;;;;;;5071624;28;20163;-70
2023/11/26 06:28:25;;;;;;;18.53;11.60;;;5.70;99.90;;;;;;5071791;28;20254;-70
2023/11/26 06:30:51;;;;;;;20.10;11.07;;;5.70;99.90;;;;;;5071401;28;20428;-71
2023/11/26 06:33:16;;;;;;;19.20;12.07;;;5.70;99.90;;;;;;5053284;28;20487;-70
2023/11/26 06:35:43;;;;;;;22.60;11.83;;;5.70;99.90;;;;;;5071392;28;20202;-70
2023/11/26 06:38:10;;;;;;;21.80;10.67;;;5.70;99.90;;;;;;5071573;28;20197;-71
2023/11/26 06:40:36;;;;;;;19.27;11.10;;;5.70;99.90;;;;;;5071296;28;20935;-70
2023/11/26 06:43:02;;;;;;;34.40;13.77;;;5.60;99.90;;;;;;5071553;28;20396;-70
2023/11/26 06:45:28;;;;;;;20.90;12.63;;;5.50;99.90;;;;;;5071519;28;20930;-71
2023/11/26 06:47:53;;;;;;;18.17;11.53;;;5.50;99.90;;;;;;5071176;28;20755;-70
2023/11/26 06:50:19;;;;;;;17.57;11.87;;;5.50;99.90;;;;;;5071192;28;20186;-71
2023/11/26 06:52:45;;;;;;;25.53;12.70;;;5.40;99.90;;;;;;5071325;28;20190;-70
2023/11/26 06:55:10;;;;;;;17.10;12.80;;;5.50;99.90;;;;;;5071393;28;20193;-69
2023/11/26 06:57:36;;;;;;;20.43;11.70;;;5.40;99.90;;;;;;5053539;28;20170;-69
2023/11/26 07:00:03;;;;;;;14.97;11.00;;;5.50;99.90;;;;;;5071432;28;20420;-69
2023/11/26 07:02:29;;;;;;;19.60;11.63;;;5.50;99.90;;;;;;5071176;28;20190;-70
2023/11/26 07:04:55;;;;;;;22.47;13.07;;;5.60;99.90;;;;;;5071366;28;20416;-70
2023/11/26 07:07:21;;;;;;;23.10;12.43;;;5.60;99.90;;;;;;5071335;28;20393;-71
2023/11/26 07:09:47;;;;;;;27.40;13.03;;;5.50;99.90;;;;;;5071242;28;20215;-70
2023/11/26 07:12:13;;;;;;;20.73;11.70;;;5.50;99.90;;;;;;5071314;28;20193;-69
2023/11/26 07:14:38;;;;;;;25.10;13.27;;;5.50;99.90;;;;;;5073446;28;20777;-70
2023/11/26 07:17:05;;;;;;;21.00;11.67;;;5.60;99.90;;;;;;5074623;28;20524;-69
2023/11/26 07:19:30;;;;;;;20.07;12.00;;;5.70;99.90;;;;;;5074790;28;20175;-70
2023/11/26 07:21:56;;;;;;;18.00;10.30;;;5.80;99.90;;;;;;5056768;28;20557;-70
2023/11/26 07:24:22;;;;;;;27.67;12.00;;;5.70;99.90;;;;;;5074782;28;20245;-69
2023/11/26 07:26:48;;;;;;;18.47;11.93;;;5.60;99.90;;;;;;5074523;28;20167;-70
2023/11/26 07:29:13;;;;;;;22.77;11.40;;;5.70;99.90;;;;;;5074726;28;20420;-69
2023/11/26 07:31:39;;;;;;;26.33;13.70;;;5.80;99.90;;;;;;5074532;28;20664;-69
2023/11/26 07:34:05;;;;;;;21.53;11.60;;;5.90;99.90;;;;;;5074619;28;20228;-69
2023/11/26 07:36:32;;;;;;;23.77;12.20;;;5.90;99.90;;;;;;5074294;28;20248;-69
2023/11/26 07:39:00;;;;;;;17.00;9.60;;;6.00;99.90;;;;;;5073915;28;20158;-70
2023/11/26 07:41:26;;;;;;;23.20;12.57;;;6.00;99.90;;;;;;5074482;28;20407;-70
2023/11/26 07:43:53;;;;;;;25.60;12.00;;;6.00;99.90;;;;;;5074376;28;20495;-70
2023/11/26 07:46:19;;;;;;;28.20;14.10;;;6.00;99.90;;;;;;5074177;28;20170;-70
2023/11/26 07:48:46;;;;;;;17.13;11.10;;;6.00;99.90;;;;;;5074347;28;20957;-70
2023/11/26 07:51:12;;;;;;;20.23;11.60;;;6.00;99.90;;;;;;5074176;28;20424;-70
2023/11/26 07:53:39;;;;;;;23.80;12.60;;;6.00;99.90;;;;;;5056167;28;20436;-70
2023/11/26 07:56:05;;;;;;;19.33;11.10;;;6.00;99.90;;;;;;5073971;28;20467;-70
2023/11/26 07:58:34;;;;;;;21.63;11.27;;;6.10;99.90;;;;;;5074197;28;20480;-70
2023/11/26 08:01:03;;;;;;;24.20;11.20;;;6.10;99.90;;;;;;5073901;28;20456;-70
2023/11/26 08:03:32;;;;;;;25.90;11.30;;;6.20;99.90;;;;;;5074174;28;20411;-70
2023/11/26 08:06:00;;;;;;;18.03;11.07;;;6.20;99.90;;;;;;5073968;28;20413;-70
2023/11/26 08:08:32;;;;;;;19.83;11.17;;;6.40;99.90;;;;;;5074081;28;20412;-70
2023/11/26 08:10:58;;;;;;;29.50;15.10;;;6.40;99.90;;;;;;5073860;28;20474;-70
2023/11/26 08:13:27;;;;;;;20.43;11.90;;;6.50;99.90;;;;;;5073990;28;20775;-70
2023/11/26 08:15:57;;;;;;;16.10;10.63;;;6.60;99.90;;;;;;5073560;28;20452;-70
2023/11/26 08:18:25;;;;;;;21.33;10.57;;;6.70;99.90;;;;;;5055938;28;20427;-70
2023/11/26 08:20:53;;;;;;;26.40;10.80;;;6.90;99.90;;;;;;5073784;28;20937;-70
2023/11/26 08:23:19;;;;;;;16.93;10.80;;;6.90;99.90;;;;;;5073821;28;20401;-71
2023/11/26 08:25:44;;;;;;;24.70;12.10;;;7.10;99.90;;;;;;5072888;28;20446;-70
2023/11/26 08:28:11;;;;;;;27.60;10.20;;;7.20;99.90;;;;;;5055748;28;20173;-69
2023/11/26 08:30:47;;;;;;;17.10;9.57;;;7.40;99.90;;;;;;5073539;28;20190;-69
2023/11/26 08:33:15;;;;;;;15.50;10.73;;;7.50;99.90;;;;;;5073563;28;20403;-69
2023/11/26 08:35:41;;;;;;;23.50;12.80;;;7.60;99.90;;;;;;5055367;28;20459;-70
2023/11/26 08:38:07;;;;;;;18.37;10.77;;;7.70;99.90;;;;;;5073488;28;20408;-70
2023/11/26 08:40:35;;;;;;;31.40;14.67;;;7.80;99.90;;;;;;5073194;28;20182;-70
2023/11/26 08:43:02;;;;;;;17.43;12.07;;;7.90;99.90;;;;;;5073274;28;20475;-70
2023/11/26 08:45:28;;;;;;;19.13;11.93;;;8.00;99.90;;;;;;5073229;28;20404;-70
2023/11/26 08:47:55;;;;;;;15.00;10.77;;;8.00;99.90;;;;;;5073132;28;20984;-69
2023/11/26 08:50:22;;;;;;;17.50;10.27;;;8.10;99.90;;;;;;5073357;28;20190;-69
2023/11/26 08:52:47;;;;;;;17.40;10.07;;;8.20;99.90;;;;;;5073110;28;20485;-70
2023/11/26 08:55:13;;;;;;;21.73;10.80;;;8.10;99.90;;;;;;5072923;28;20548;-69
2023/11/26 08:57:39;;;;;;;24.83;11.30;;;8.00;99.90;;;;;;5072901;28;20189;-70
2023/11/26 09:00:09;;;;;;;18.60;9.63;;;8.00;99.90;;;;;;5072848;28;20269;-69
2023/11/26 09:02:40;;;;;;;18.60;9.83;;;8.10;99.90;;;;;;5073046;28;20508;-68
2023/11/26 09:05:09;;;;;;;14.43;9.67;;;8.10;99.90;;;;;;5072977;28;20927;-67
2023/11/26 09:07:42;;;;;;;17.20;9.40;;;8.20;99.90;;;;;;5072634;28;20407;-67
2023/11/26 09:10:09;;;;;;;20.03;10.80;;;8.20;99.90;;;;;;5072597;28;20799;-68
2023/11/26 09:12:36;;;;;;;22.50;12.37;;;8.20;99.90;;;;;;5072811;28;20432;-68
2023/11/26 09:15:02;;;;;;;24.90;12.20;;;8.20;99.90;;;;;;5072573;28;20448;-68
2023/11/26 09:17:27;;;;;;;24.43;10.20;;;8.20;99.90;;;;;;5072458;28;20783;-67
2023/11/26 09:19:53;;;;;;;16.87;9.90;;;8.00;99.90;;;;;;5072508;28;20894;-67
2023/11/26 09:22:19;;;;;;;14.97;9.57;;;8.10;99.90;;;;;;5054558;28;20249;-68
2023/11/26 09:24:46;;;;;;;19.93;9.10;;;8.10;99.90;;;;;;5072518;28;20538;-68
2023/11/26 09:27:11;;;;;;;18.70;9.60;;;8.30;99.90;;;;;;5072167;28;20174;-68
2023/11/26 09:29:38;;;;;;;17.43;10.97;;;8.30;99.90;;;;;;5072505;28;21053;-68
2023/11/26 09:32:04;;;;;;;16.60;9.10;;;8.40;99.90;;;;;;5072322;28;20163;-67
2023/11/26 09:34:29;;;;;;;16.40;11.20;;;8.50;99.90;;;;;;5072177;28;20409;-67
2023/11/26 09:36:58;;;;;;;14.60;10.27;;;8.60;99.90;;;;;;5053595;28;20404;-67
2023/11/26 09:39:23;;;;;;;17.87;10.10;;;8.70;99.90;;;;;;5072145;28;20284;-67
2023/11/26 09:41:52;;;;;;;13.90;8.97;;;8.50;99.90;;;;;;5054441;28;20455;-67
2023/11/26 09:44:18;;;;;;;16.37;10.10;;;8.60;99.90;;;;;;5072217;28;20174;-67
2023/11/26 09:46:45;;;;;;;16.30;8.67;;;8.60;99.90;;;;;;5072050;28;20408;-68
2023/11/26 09:49:11;;;;;;;14.73;9.70;;;8.70;99.90;;;;;;5071204;28;20201;-67
2023/11/26 09:51:37;;;;;;;18.73;10.37;;;8.80;99.90;;;;;;5072176;28;20404;-68
2023/11/26 09:54:04;;;;;;;15.30;9.33;;;8.90;99.90;;;;;;5072264;28;20165;-68
2023/11/26 09:56:30;;;;;;;16.80;7.90;;;9.00;99.90;;;;;;5054086;28;20480;-68
2023/11/26 09:58:56;;;;;;;13.57;8.53;;;9.00;99.90;;;;;;5072066;28;20902;-68
2023/11/26 10:01:21;;;;;;;14.77;8.10;;;8.80;99.90;;;;;;5077749;28;20412;-68
2023/11/26 10:04:00;;;;;;;23.43;9.50;;;8.70;99.90;;;;;;5092427;28;20169;-68
2023/11/26 10:06:26;;;;;;;12.13;8.33;;;8.80;99.90;;;;;;5092456;28;20184;-68
2023/11/26 10:08:52;;;;;;;16.70;9.43;;;8.80;99.90;;;;;;5092801;28;20442;-68
2023/11/26 10:11:25;;;;;;;14.03;9.43;;;8.80;99.90;;;;;;5087665;28;20443;-68
2023/11/26 10:13:52;;;;;;;15.60;9.70;;;8.70;99.90;;;;;;5054183;28;20236;-67
2023/11/26 10:16:28;;;;;;;18.50;9.30;;;8.60;99.90;;;;;;5071593;28;20479;-67
2023/11/26 10:18:54;;;;;;;19.03;9.63;;;8.60;99.90;;;;;;5072118;28;20479;-67
2023/11/26 10:21:20;;;;;;;12.57;9.07;;;8.70;99.90;;;;;;5076773;28;20412;-67
2023/11/26 10:23:46;;;;;;;13.60;9.50;;;8.90;99.90;;;;;;5092755;28;20686;-68
2023/11/26 10:26:23;;;;;;;13.73;8.23;;;9.10;99.90;;;;;;5089428;28;20416;-68
2023/11/26 10:29:20;;;;;;;14.60;9.57;;;9.50;99.90;;;;;;5072141;28;20532;-68
2023/11/26 10:31:59;;;;;;;15.00;9.60;;;9.90;99.90;;;;;;5034483;28;20490;-67
2023/11/26 10:34:25;;;;;;;11.80;7.43;;;10.20;99.90;;;;;;5071721;28;20407;-67
2023/11/26 10:36:50;;;;;;;17.30;8.47;;;10.80;99.90;;;;;;5071535;28;20452;-68
2023/11/26 10:39:17;;;;;;;8.73;6.23;;;11.40;99.90;;;;;;5071554;28;20730;-68
2023/11/26 10:41:45;;;;;;;8.83;6.17;;;11.90;99.90;;;;;;5071616;28;20190;-68
2023/11/26 10:44:12;;;;;;;7.23;5.90;;;12.00;99.90;;;;;;5071568;28;20407;-68
2023/11/26 10:46:41;;;;;;;7.67;5.93;;;12.30;99.90;;;;;;5053589;28;20471;-68
2023/11/26 10:49:28;;;;;;;9.87;7.63;;;12.40;99.90;;;;;;5055361;28;20478;-68
2023/11/26 10:52:22;;;;;;;8.30;6.53;;;12.40;99.90;;;;;;5075406;28;20432;-68
2023/11/26 10:55:08;;;;;;;7.87;5.83;;;12.40;99.90;;;;;;5075468;28;20421;-68
2023/11/26 10:57:41;;;;;;;7.47;5.77;;;12.20;99.90;;;;;;5075354;28;20400;-68
2023/11/26 11:00:14;;;;;;;6.73;5.80;;;12.00;99.90;;;;;;5057351;28;20437;-67
2023/11/26 11:02:41;;;;;;;9.23;7.03;;;11.60;99.90;;;;;;5075302;28;20385;-67
2023/11/26 11:05:09;;;;;;;8.67;5.40;;;11.50;99.90;;;;;;5075239;28;20416;-67
2023/11/26 11:07:35;;;;;;;8.60;5.60;;;11.30;99.90;;;;;;5075113;28;20411;-68
2023/11/26 11:10:18;;;;;;;6.70;5.20;;;11.20;99.90;;;;;;5075124;28;20474;-68
2023/11/26 11:12:50;;;;;;;14.50;6.87;;;10.80;99.90;;;;;;5074861;28;20392;-67
2023/11/26 11:15:16;;;;;;;10.40;8.03;;;10.70;99.90;;;;;;5075355;28;20444;-68
2023/11/26 11:17:42;;;;;;;10.73;6.53;;;10.50;99.90;;;;;;5075183;28;20404;-69
2023/11/26 11:20:09;;;;;;;9.53;6.97;;;10.40;99.90;;;;;;5075124;28;20428;-69
2023/11/26 11:22:41;;;;;;;11.30;7.17;;;10.40;99.90;;;;;;5075105;28;20162;-69
2023/11/26 11:25:12;;;;;;;8.13;6.60;;;10.40;99.90;;;;;;5057102;28;21096;-69
2023/11/26 11:27:51;;;;;;;8.43;5.37;;;10.50;99.90;;;;;;5074841;28;20915;-68
2023/11/26 11:30:31;;;;;;;7.97;7.13;;;10.60;99.90;;;;;;5074769;28;20427;-69
2023/11/26 11:33:08;;;;;;;6.47;5.60;;;10.30;99.90;;;;;;5074856;28;20443;-68
2023/11/26 11:35:40;;;;;;;8.30;6.43;;;10.00;99.90;;;;;;5074729;28;20799;-68
2023/11/26 11:38:09;;;;;;;15.10;7.53;;;10.10;99.90;;;;;;5074873;28;20412;-68
2023/11/26 11:41:11;;;;;;;10.50;7.20;;;10.00;99.90;;;;;;5056873;28;20433;-68
2023/11/26 11:43:39;;;;;;;11.50;6.73;;;10.30;99.90;;;;;;5074825;28;20745;-68
2023/11/26 11:46:26;;;;;;;13.37;7.67;;;10.40;99.90;;;;;;5074654;28;20412;-68
2023/11/26 11:48:59;;;;;;;9.17;6.20;;;10.70;99.90;;;;;;5074442;28;20396;-68
2023/11/26 11:51:40;;;;;;;9.57;5.50;;;10.80;99.90;;;;;;5074051;28;20411;-68
2023/11/26 11:54:09;;;;;;;8.93;5.63;;;11.00;99.90;;;;;;5065447;28;20409;-68
2023/11/26 11:56:42;;;;;;;10.00;5.80;;;10.90;99.90;;;;;;5063622;28;20449;-68
2023/11/26 11:59:08;;;;;;;5.83;4.93;;;10.80;99.90;;;;;;5068792;28;20416;-68
2023/11/26 12:01:39;;;;;;;8.60;4.83;;;10.80;99.90;;;;;;5060681;28;20397;-68
2023/11/26 12:04:04;;;;;;;12.00;6.27;;;10.80;99.90;;;;;;5054005;28;20464;-68
2023/11/26 12:06:31;;;;;;;4.93;4.43;;;11.00;99.90;;;;;;5054148;28;20433;-68
2023/11/26 12:08:58;;;;;;;5.33;4.13;;;11.00;99.90;;;;;;5036216;28;20171;-68
2023/11/26 12:11:24;;;;;;;10.50;5.03;;;11.00;99.90;;;;;;5036198;28;20412;-68
2023/11/26 12:13:50;;;;;;;6.63;4.70;;;11.00;99.90;;;;;;5036179;28;21123;-67
2023/11/26 12:16:16;;;;;;;6.23;4.10;;;10.90;99.90;;;;;;5053782;28;20195;-69
2023/11/26 12:18:42;;;;;;;6.53;5.30;;;10.90;99.90;;;;;;5053960;28;20443;-68
2023/11/26 12:21:09;;;;;;;7.17;4.90;;;10.90;99.90;;;;;;5053624;28;20179;-69
2023/11/26 12:23:36;;;;;;;6.53;4.73;;;10.90;99.90;;;;;;5053741;28;20492;-67
2023/11/26 12:26:03;;;;;;;8.93;5.57;;;11.00;99.90;;;;;;5053633;28;21115;-68
2023/11/26 12:28:32;;;;;;;9.87;4.90;;;10.90;99.90;;;;;;5053786;28;20754;-67
2023/11/26 12:31:01;;;;;;;6.83;5.27;;;10.60;99.90;;;;;;5035611;28;20440;-69
2023/11/26 12:33:26;;;;;;;5.50;3.90;;;10.60;99.90;;;;;;5053707;28;20412;-68
2023/11/26 12:35:52;;;;;;;7.23;4.60;;;10.60;99.90;;;;;;5053354;28;21150;-68
2023/11/26 12:38:25;;;;;;;9.00;4.60;;;10.50;99.90;;;;;;5053746;28;20167;-69
2023/11/26 12:40:52;;;;;;;4.60;4.10;;;10.40;99.90;;;;;;5053358;28;20749;-68
2023/11/26 12:43:19;;;;;;;8.47;4.13;;;10.30;99.90;;;;;;5035621;28;20959;-68
2023/11/26 12:45:45;;;;;;;7.97;3.50;;;10.20;99.90;;;;;;5053183;28;20464;-67
2023/11/26 12:48:11;;;;;;;4.90;4.20;;;10.10;99.90;;;;;;5053007;28;20398;-68